Time;durP1;ratioP1;P1;durP2;ratioP2;P2;SDS_P1;SDS_P2;PMS_P1;PMS_P2;Temp;Humidity;BMP_temperature;BMP_pressure;BME280_temperature;BME280_humidity;BME280_pressure;Samples;Min_cycle;Max_cycle;Signal;HPM_P1;HPM_P2
2023/08/14 00:01:15;;;;;;;22.27;15.98;;;;;;;15.93;100.00;101502.66;5029639;28;20441;-75
2023/08/14 00:03:41;;;;;;;26.83;19.20;;;;;;;15.90;100.00;101500.25;5032832;28;20366;-75
2023/08/14 00:06:06;;;;;;;23.75;18.38;;;;;;;15.90;100.00;101502.91;5038876;28;20094;-75
2023/08/14 00:08:32;;;;;;;27.83;19.75;;;;;;;15.91;100.00;101509.91;5048189;28;20043;-75
2023/08/14 00:10:57;;;;;;;26.15;17.65;;;;;;;15.86;100.00;101506.81;5051915;28;20120;-74
2023/08/14 00:13:23;;;;;;;27.50;19.77;;;;;;;15.79;100.00;101503.00;5052116;28;20369;-74
2023/08/14 00:15:49;;;;;;;24.38;18.23;;;;;;;15.81;100.00;101506.38;5028885;28;20080;-74
2023/08/14 00:18:14;;;;;;;26.98;18.73;;;;;;;15.75;100.00;101506.88;5027587;28;20042;-74
2023/08/14 00:20:40;;;;;;;30.35;21.50;;;;;;;15.69;100.00;101502.09;5011770;28;20022;-74
2023/08/14 00:23:05;;;;;;;31.65;22.73;;;;;;;15.69;100.00;101499.47;5010884;28;20106;-74
2023/08/14 00:25:31;;;;;;;28.20;20.02;;;;;;;15.66;100.00;101498.75;5035172;28;20048;-74
2023/08/14 00:27:56;;;;;;;25.92;20.05;;;;;;;15.62;100.00;101489.38;5050121;28;20090;-74
2023/08/14 00:30:21;;;;;;;28.40;21.00;;;;;;;15.54;100.00;101497.06;5050012;28;20021;-74
2023/08/14 00:32:47;;;;;;;28.50;20.88;;;;;;;15.53;100.00;101489.25;5025572;28;20075;-74
2023/08/14 00:35:13;;;;;;;26.23;18.88;;;;;;;15.53;100.00;101490.09;5033035;28;20397;-74
2023/08/14 00:37:47;;;;;;;26.48;18.95;;;;;;;15.52;100.00;101498.19;5051128;28;20064;-74
2023/08/14 00:40:14;;;;;;;23.63;19.67;;;;;;;15.48;100.00;101502.06;5050647;28;20090;-74
2023/08/14 00:42:45;;;;;;;25.35;19.92;;;;;;;15.44;100.00;101498.84;5050299;28;20028;-74
2023/08/14 00:45:11;;;;;;;26.65;19.90;;;;;;;15.48;100.00;101497.59;5050617;28;20025;-75
2023/08/14 00:47:37;;;;;;;28.00;20.02;;;;;;;15.45;100.00;101497.03;5043642;28;20690;-74
2023/08/14 00:50:05;;;;;;;23.55;18.52;;;;;;;15.42;100.00;101498.13;5031127;28;20029;-74
2023/08/14 00:52:32;;;;;;;25.58;19.17;;;;;;;15.40;100.00;101493.91;5033876;28;20033;-74
2023/08/14 00:55:11;;;;;;;27.23;18.40;;;;;;;15.45;100.00;101499.69;5043103;28;20036;-74
2023/08/14 00:57:38;;;;;;;21.10;17.00;;;;;;;15.42;100.00;101484.03;5037366;28;20081;-74
2023/08/14 01:00:05;;;;;;;18.73;16.30;;;;;;;15.37;100.00;101487.06;5045332;28;20028;-74
2023/08/14 01:02:31;;;;;;;22.70;16.33;;;;;;;15.38;100.00;101491.41;5043835;28;20032;-73
2023/08/14 01:04:56;;;;;;;22.58;16.75;;;;;;;15.36;100.00;101483.56;5023093;28;20037;-74
2023/08/14 01:07:24;;;;;;;21.25;16.00;;;;;;;15.37;100.00;101484.41;5029725;28;20060;-73
2023/08/14 01:09:50;;;;;;;19.20;15.13;;;;;;;15.29;100.00;101484.22;5032058;28;20026;-74
2023/08/14 01:12:38;;;;;;;21.65;16.35;;;;;;;15.25;100.00;101483.63;5049160;28;20110;-74
2023/08/14 01:15:11;;;;;;;17.30;14.70;;;;;;;15.23;100.00;101477.63;5050814;28;20029;-73
2023/08/14 01:17:43;;;;;;;19.88;15.73;;;;;;;15.19;100.00;101475.31;5049659;28;20137;-74
2023/08/14 01:20:12;;;;;;;20.85;16.13;;;;;;;15.20;100.00;101472.53;5050871;28;20093;-73
2023/08/14 01:22:43;;;;;;;23.52;16.45;;;;;;;15.25;100.00;101469.53;5027921;28;20030;-74
2023/08/14 01:25:31;;;;;;;18.30;14.65;;;;;;;15.24;100.00;101473.16;5028743;28;20029;-73
2023/08/14 01:27:58;;;;;;;20.58;14.82;;;;;;;15.17;100.00;101464.00;5033996;28;20409;-73
2023/08/14 01:30:24;;;;;;;18.42;14.63;;;;;;;15.18;100.00;101463.03;5038278;28;20517;-73
2023/08/14 01:32:50;;;;;;;16.17;14.23;;;;;;;15.21;100.00;101468.09;5028586;28;20045;-74
2023/08/14 01:35:22;;;;;;;16.58;13.48;;;;;;;15.19;100.00;101464.72;5040323;28;20035;-74
2023/08/14 01:38:05;;;;;;;17.58;13.45;;;;;;;15.15;100.00;101464.13;5036865;28;20029;-74
2023/08/14 01:40:30;;;;;;;17.60;13.70;;;;;;;15.09;100.00;101463.81;5024334;28;20043;-74
2023/08/14 01:43:00;;;;;;;17.75;13.95;;;;;;;15.10;100.00;101454.91;5047180;28;20484;-74
2023/08/14 01:45:28;;;;;;;19.48;13.32;;;;;;;15.07;100.00;101455.16;5048754;28;20024;-74
2023/08/14 01:47:55;;;;;;;18.08;13.52;;;;;;;15.04;100.00;101443.84;5048958;28;20039;-74
2023/08/14 01:50:24;;;;;;;18.88;13.32;;;;;;;15.05;100.00;101434.06;5049476;28;20083;-74
2023/08/14 01:52:49;;;;;;;18.88;13.07;;;;;;;15.07;100.00;101433.94;5048830;28;20021;-74
2023/08/14 01:55:15;;;;;;;13.70;12.07;;;;;;;15.05;100.00;101437.56;5033357;28;20124;-74
2023/08/14 01:57:40;;;;;;;14.68;12.77;;;;;;;15.08;100.00;101433.81;5047317;28;20025;-74
2023/08/14 02:00:09;;;;;;;16.33;12.52;;;;;;;15.02;100.00;101431.69;5047953;28;20535;-74
2023/08/14 02:02:35;;;;;;;13.77;12.18;;;;;;;15.05;100.00;101423.47;5048413;28;20111;-74
2023/08/14 02:05:00;;;;;;;15.10;11.57;;;;;;;15.01;100.00;101428.19;5047171;28;20119;-74
2023/08/14 02:07:25;;;;;;;13.60;11.77;;;;;;;14.99;100.00;101429.28;5048022;28;20029;-73
2023/08/14 02:09:51;;;;;;;13.30;11.27;;;;;;;14.94;100.00;101423.53;5037387;28;20021;-74
2023/08/14 02:12:16;;;;;;;14.23;10.57;;;;;;;14.94;100.00;101420.88;5021389;28;20078;-74
2023/08/14 02:14:42;;;;;;;13.18;10.73;;;;;;;14.90;100.00;101425.59;5029338;28;20037;-74
2023/08/14 02:17:10;;;;;;;16.17;10.75;;;;;;;14.87;100.00;101423.22;5040052;28;20043;-73
2023/08/14 02:19:35;;;;;;;17.40;10.70;;;;;;;14.87;100.00;101423.22;5047348;28;20045;-74
2023/08/14 02:22:01;;;;;;;11.90;10.18;;;;;;;14.86;100.00;101415.38;5046673;28;20049;-74
2023/08/14 02:24:26;;;;;;;14.05;11.10;;;;;;;14.92;100.00;101415.72;5045664;28;20033;-74
2023/08/14 02:26:51;;;;;;;13.93;10.52;;;;;;;14.91;100.00;101419.34;5049433;28;20052;-74
2023/08/14 02:29:18;;;;;;;11.88;10.43;;;;;;;14.92;100.00;101423.66;5032796;28;20033;-74
2023/08/14 02:31:45;;;;;;;11.07;9.65;;;;;;;14.92;100.00;101414.88;5028627;28;20067;-74
2023/08/14 02:34:11;;;;;;;12.20;9.88;;;;;;;14.90;100.00;101412.34;5046701;28;20485;-74
2023/08/14 02:36:36;;;;;;;12.82;9.27;;;;;;;14.87;100.00;101402.00;5029566;28;20063;-73
2023/08/14 02:39:02;;;;;;;11.68;8.95;;;;;;;14.84;100.00;101396.13;5030592;28;20053;-74
2023/08/14 02:41:29;;;;;;;10.07;8.77;;;;;;;14.84;100.00;101407.56;5027198;28;20586;-73
2023/08/14 02:43:54;;;;;;;12.45;9.18;;;;;;;14.79;100.00;101399.13;5039253;28;20033;-74
2023/08/14 02:46:19;;;;;;;10.93;8.80;;;;;;;14.77;100.00;101395.78;5030737;28;20040;-73
2023/08/14 02:48:45;;;;;;;12.65;8.65;;;;;;;14.74;100.00;101399.50;5028151;28;20621;-74
2023/08/14 02:51:10;;;;;;;11.73;9.05;;;;;;;14.70;100.00;101403.38;5034753;28;20033;-74
2023/08/14 02:53:36;;;;;;;10.23;8.32;;;;;;;14.67;100.00;101410.75;5047715;28;20059;-73
2023/08/14 02:56:01;;;;;;;12.73;8.48;;;;;;;14.68;100.00;101401.84;5048027;28;20079;-74
2023/08/14 02:58:27;;;;;;;13.43;8.52;;;;;;;14.68;100.00;101404.47;5030174;28;20104;-73
2023/08/14 03:00:52;;;;;;;12.82;8.48;;;;;;;14.61;100.00;101400.66;5034661;28;20589;-73
2023/08/14 03:03:17;;;;;;;11.82;8.45;;;;;;;14.64;100.00;101395.94;5024839;28;20029;-73
2023/08/14 03:05:44;;;;;;;11.07;8.43;;;;;;;14.63;100.00;101398.72;5027639;28;20104;-74
2023/08/14 03:08:09;;;;;;;12.65;8.40;;;;;;;14.59;100.00;101394.66;5028591;28;20060;-74
2023/08/14 03:10:35;;;;;;;14.57;9.20;;;;;;;14.65;100.00;101391.50;5059825;28;20057;-73
2023/08/14 03:13:01;;;;;;;14.25;9.40;;;;;;;14.63;100.00;101394.28;5048529;28;20235;-74
2023/08/14 03:15:27;;;;;;;11.90;8.52;;;;;;;14.65;100.00;101394.16;5048447;28;20073;-74
2023/08/14 03:17:52;;;;;;;12.27;8.10;;;;;;;14.61;100.00;101405.97;5043505;28;20559;-73
2023/08/14 03:20:18;;;;;;;11.90;8.25;;;;;;;14.63;100.00;101401.38;5020692;28;20040;-74
2023/08/14 03:22:43;;;;;;;11.05;7.95;;;;;;;14.57;100.00;101409.81;5043464;28;20392;-74
2023/08/14 03:25:09;;;;;;;9.00;8.00;;;;;;;14.49;100.00;101407.81;5047485;28;20024;-74
2023/08/14 03:27:34;;;;;;;11.40;8.80;;;;;;;14.57;100.00;101404.53;5049599;28;20023;-74
2023/08/14 03:29:59;;;;;;;15.68;8.52;;;;;;;14.50;100.00;101404.19;5046791;28;20037;-73
2023/08/14 03:32:25;;;;;;;10.75;8.05;;;;;;;14.48;100.00;101407.94;5048728;28;20374;-73
2023/08/14 03:34:51;;;;;;;12.90;8.43;;;;;;;14.46;100.00;101397.47;5044046;28;20547;-73
2023/08/14 03:37:17;;;;;;;12.98;8.15;;;;;;;14.45;100.00;101402.91;5032341;28;20112;-73
2023/08/14 03:39:42;;;;;;;10.82;8.15;;;;;;;14.44;100.00;101411.81;5045880;28;20108;-73
2023/08/14 03:42:08;;;;;;;10.68;8.38;;;;;;;14.41;100.00;101408.41;5049155;28;20035;-73
2023/08/14 03:44:33;;;;;;;11.07;8.90;;;;;;;14.37;100.00;101404.28;5048014;28;20017;-73
2023/08/14 03:46:59;;;;;;;11.80;8.05;;;;;;;14.37;100.00;101409.59;5027285;28;20049;-73
2023/08/14 03:49:24;;;;;;;10.85;7.70;;;;;;;14.34;100.00;101407.19;5028261;28;20034;-73
2023/08/14 03:51:49;;;;;;;9.30;7.78;;;;;;;14.33;100.00;101417.91;5027787;28;20470;-74
2023/08/14 03:54:15;;;;;;;12.02;8.00;;;;;;;14.30;100.00;101413.72;5029345;28;20094;-74
2023/08/14 03:56:40;;;;;;;9.73;8.10;;;;;;;14.38;100.00;101415.72;5050225;28;20485;-74
2023/08/14 03:59:06;;;;;;;12.45;7.88;;;;;;;14.34;100.00;101403.72;5047019;28;20037;-73
2023/08/14 04:01:31;;;;;;;9.25;7.63;;;;;;;14.35;100.00;101411.53;5049138;28;20108;-74
2023/08/14 04:03:57;;;;;;;11.77;8.70;;;;;;;14.33;100.00;101402.88;5051525;28;20898;-73
2023/08/14 04:06:22;;;;;;;12.52;8.35;;;;;;;14.32;100.00;101410.94;5049803;28;20427;-73
2023/08/14 04:08:47;;;;;;;11.05;8.40;;;;;;;14.32;100.00;101411.78;5044049;28;20625;-73
2023/08/14 04:11:13;;;;;;;11.95;8.20;;;;;;;14.31;100.00;101407.44;5028086;28;20052;-73
2023/08/14 04:13:38;;;;;;;12.65;8.23;;;;;;;14.32;100.00;101401.19;5031171;28;20071;-73
2023/08/14 04:16:04;;;;;;;13.27;8.57;;;;;;;14.37;100.00;101388.41;5040358;28;20385;-74
2023/08/14 04:18:30;;;;;;;15.27;8.52;;;;;;;14.37;100.00;101393.72;5041380;28;20037;-73
2023/08/14 04:20:56;;;;;;;11.30;7.95;;;;;;;14.31;100.00;101386.28;5047753;28;20042;-73
2023/08/14 04:23:26;;;;;;;11.30;7.93;;;;;;;14.32;100.00;101385.31;5050116;28;20021;-73
2023/08/14 04:25:52;;;;;;;10.90;7.90;;;;;;;14.31;100.00;101386.28;5037084;28;20018;-74
2023/08/14 04:28:18;;;;;;;13.50;7.93;;;;;;;14.30;100.00;101381.94;5035092;28;20029;-73
2023/08/14 04:30:43;;;;;;;11.77;8.57;;;;;;;14.31;100.00;101383.63;5039676;28;20036;-73
2023/08/14 04:33:08;;;;;;;13.00;8.50;;;;;;;14.29;100.00;101377.63;5040209;28;20107;-73
2023/08/14 04:35:34;;;;;;;8.63;7.78;;;;;;;14.33;100.00;101376.41;5040608;28;20060;-73
2023/08/14 04:37:59;;;;;;;11.32;8.00;;;;;;;14.32;100.00;101379.16;5047391;28;20024;-73
2023/08/14 04:40:25;;;;;;;11.07;8.25;;;;;;;14.34;100.00;101377.22;5040794;28;20037;-73
2023/08/14 04:42:50;;;;;;;13.27;8.25;;;;;;;14.30;100.00;101368.69;5029998;28;20025;-73
2023/08/14 04:45:16;;;;;;;10.77;8.23;;;;;;;14.34;100.00;101364.00;5030264;28;20022;-73
2023/08/14 04:47:42;;;;;;;13.50;7.88;;;;;;;14.37;100.00;101361.94;5029658;28;20433;-73
2023/08/14 04:50:08;;;;;;;10.32;7.70;;;;;;;14.45;100.00;101357.88;5035204;28;20037;-72
2023/08/14 04:52:33;;;;;;;11.65;8.30;;;;;;;14.57;100.00;101360.34;5044322;28;20128;-73
2023/08/14 04:54:59;;;;;;;8.48;7.60;;;;;;;14.67;100.00;101357.78;5035006;28;20053;-73
2023/08/14 04:57:24;;;;;;;9.70;7.55;;;;;;;14.69;100.00;101355.84;5029438;28;20017;-73
2023/08/14 04:59:49;;;;;;;8.93;7.43;;;;;;;14.69;100.00;101347.91;5034296;28;20024;-73
2023/08/14 05:02:15;;;;;;;8.55;7.57;;;;;;;14.78;100.00;101343.63;5019191;28;20503;-73
2023/08/14 05:04:40;;;;;;;9.63;7.15;;;;;;;14.83;100.00;101342.31;5030261;28;20029;-73
2023/08/14 05:07:06;;;;;;;9.55;7.28;;;;;;;14.94;100.00;101350.19;5029462;28;20024;-73
2023/08/14 05:09:31;;;;;;;9.73;7.95;;;;;;;14.96;100.00;101340.28;5041834;28;20076;-73
2023/08/14 05:11:58;;;;;;;10.38;8.27;;;;;;;15.00;100.00;101333.75;5029722;28;20052;-73
2023/08/14 05:14:23;;;;;;;8.60;7.65;;;;;;;15.09;100.00;101332.13;5030854;28;20432;-73
2023/08/14 05:16:49;;;;;;;11.10;7.60;;;;;;;15.13;100.00;101338.84;5027918;28;20025;-73
2023/08/14 05:19:14;;;;;;;10.75;7.93;;;;;;;15.20;100.00;101336.50;5020360;28;20264;-73
2023/08/14 05:21:39;;;;;;;11.90;8.02;;;;;;;15.27;100.00;101332.38;5045076;28;20029;-73
2023/08/14 05:24:05;;;;;;;12.75;8.45;;;;;;;15.32;100.00;101338.13;5044796;28;20025;-74
2023/08/14 05:26:30;;;;;;;10.85;8.07;;;;;;;15.35;100.00;101337.88;5028090;28;20401;-73
2023/08/14 05:28:56;;;;;;;10.32;7.97;;;;;;;15.42;100.00;101344.31;5042073;28;20381;-74
2023/08/14 05:31:22;;;;;;;10.88;8.73;;;;;;;15.47;100.00;101342.09;5049745;28;20097;-73
2023/08/14 05:33:47;;;;;;;10.80;8.93;;;;;;;15.51;100.00;101345.31;5046758;28;20108;-73
2023/08/14 05:36:12;;;;;;;11.18;8.65;;;;;;;15.57;100.00;101342.97;5024967;28;20029;-73
2023/08/14 05:38:38;;;;;;;13.43;8.70;;;;;;;15.60;100.00;101347.19;5031227;28;20094;-73
2023/08/14 05:41:03;;;;;;;13.50;9.00;;;;;;;15.64;100.00;101351.28;5028698;28;20167;-74
2023/08/14 05:43:28;;;;;;;12.90;8.57;;;;;;;15.66;100.00;101358.13;5035116;28;20120;-73
2023/08/14 05:45:54;;;;;;;10.80;9.30;;;;;;;15.72;100.00;101350.63;5049426;28;20049;-73
2023/08/14 05:48:21;;;;;;;11.45;9.15;;;;;;;15.74;100.00;101352.16;5044351;28;20040;-73
2023/08/14 05:50:50;;;;;;;12.65;9.27;;;;;;;15.75;100.00;101353.00;5037752;28;20025;-73
2023/08/14 05:53:16;;;;;;;13.30;9.25;;;;;;;15.80;100.00;101364.03;5055944;28;20037;-73
2023/08/14 05:55:44;;;;;;;12.50;9.50;;;;;;;15.84;100.00;101382.22;5042693;28;20943;-73
2023/08/14 05:58:13;;;;;;;13.23;9.65;;;;;;;15.90;100.00;101372.88;5046891;28;20401;-75
2023/08/14 06:00:38;;;;;;;12.07;9.23;;;;;;;15.93;100.00;101376.09;5043627;28;20043;-77
2023/08/14 06:03:05;;;;;;;13.40;10.43;;;;;;;15.97;100.00;101371.34;5046776;28;20037;-77
2023/08/14 06:05:31;;;;;;;13.77;9.35;;;;;;;16.01;100.00;101378.09;5043169;28;20381;-77
2023/08/14 06:07:56;;;;;;;11.77;9.70;;;;;;;16.04;100.00;101380.47;5026287;28;20026;-77
2023/08/14 06:10:22;;;;;;;13.27;10.05;;;;;;;16.09;100.00;101386.22;5035549;28;20147;-77
2023/08/14 06:12:48;;;;;;;16.92;10.20;;;;;;;16.14;100.00;101393.78;5048770;28;20021;-77
2023/08/14 06:15:15;;;;;;;12.98;10.27;;;;;;;16.20;100.00;101388.75;5047959;28;20024;-77
2023/08/14 06:17:44;;;;;;;11.52;9.38;;;;;;;16.24;100.00;101379.53;5045250;28;20021;-77
2023/08/14 06:20:11;;;;;;;14.63;9.77;;;;;;;16.31;100.00;101374.50;5030564;28;20036;-77
2023/08/14 06:22:40;;;;;;;13.60;9.95;;;;;;;16.32;100.00;101370.03;5024901;28;20362;-78
2023/08/14 06:25:10;;;;;;;18.23;10.52;;;;;;;16.45;100.00;101367.97;5043146;28;20040;-77
2023/08/14 06:27:35;;;;;;;12.77;9.98;;;;;;;16.51;100.00;101357.63;5039054;28;20147;-77
2023/08/14 06:30:01;;;;;;;12.52;9.77;;;;;;;16.62;100.00;101364.63;5029858;28;20469;-78
2023/08/14 06:32:27;;;;;;;13.07;9.52;;;;;;;16.68;100.00;101361.41;5033485;28;20033;-77
2023/08/14 06:34:52;;;;;;;17.80;9.38;;;;;;;16.89;100.00;101354.16;5044055;28;20177;-77
2023/08/14 06:37:17;;;;;;;14.55;9.30;;;;;;;17.05;100.00;101358.03;5048970;28;20278;-77
2023/08/14 06:39:43;;;;;;;13.73;8.65;;;;;;;17.15;100.00;101361.50;5039010;28;20052;-77
2023/08/14 06:42:08;;;;;;;15.40;8.65;;;;;;;17.27;100.00;101362.19;5027904;28;20040;-78
2023/08/14 06:44:34;;;;;;;14.50;8.00;;;;;;;17.39;100.00;101359.22;5027806;28;20056;-77
2023/08/14 06:46:59;;;;;;;15.25;7.90;;;;;;;17.50;100.00;101352.84;5029672;28;20052;-77
2023/08/14 06:49:26;;;;;;;15.48;6.80;;;;;;;17.54;100.00;101354.25;5029033;28;20022;-77
2023/08/14 06:51:52;;;;;;;14.52;7.22;;;;;;;17.60;100.00;101355.47;5029745;28;20466;-77
2023/08/14 06:54:17;;;;;;;14.88;7.20;;;;;;;17.68;100.00;101350.31;5037627;28;20036;-77
2023/08/14 06:56:43;;;;;;;18.35;6.78;;;;;;;17.82;100.00;101353.31;5048871;28;20013;-77
2023/08/14 06:59:08;;;;;;;14.00;6.10;;;;;;;17.94;100.00;101353.94;5049498;28;21083;-77
2023/08/14 07:01:33;;;;;;;14.25;6.10;;;;;;;18.20;100.00;101347.91;5049940;28;20033;-77
2023/08/14 07:04:02;;;;;;;11.02;5.78;;;;;;;18.35;100.00;101354.38;5048561;28;20078;-77
2023/08/14 07:06:28;;;;;;;13.23;5.75;;;;;;;18.64;100.00;101355.03;5049590;28;20025;-78
2023/08/14 07:08:53;;;;;;;11.45;5.80;;;;;;;18.85;100.00;101341.38;5047731;28;20385;-78
2023/08/14 07:11:19;;;;;;;17.30;6.00;;;;;;;18.86;99.61;101343.06;5049317;28;20107;-77
2023/08/14 07:13:44;;;;;;;12.18;5.05;;;;;;;18.88;97.02;101343.75;5048383;28;20396;-78
2023/08/14 07:16:10;;;;;;;11.38;4.85;;;;;;;18.88;95.70;101345.56;5048132;28;20127;-78
2023/08/14 07:18:35;;;;;;;9.63;4.72;;;;;;;18.85;97.10;101338.72;5049403;28;20037;-78
2023/08/14 07:21:00;;;;;;;11.68;4.63;;;;;;;18.87;97.76;101338.56;5048635;28;20025;-78
2023/08/14 07:23:26;;;;;;;9.10;4.40;;;;;;;18.84;98.15;101345.06;5035092;28;20029;-77
2023/08/14 07:25:51;;;;;;;12.27;4.78;;;;;;;18.92;97.37;101344.28;5028729;28;20552;-77
2023/08/14 07:28:17;;;;;;;10.23;4.40;;;;;;;19.10;96.75;101350.38;5034833;28;20032;-77
2023/08/14 07:30:43;;;;;;;8.82;4.20;;;;;;;19.29;95.42;101360.88;5049672;28;20392;-78
2023/08/14 07:33:10;;;;;;;10.63;4.43;;;;;;;19.28;93.66;101372.53;5052483;28;20029;-77
2023/08/14 07:35:36;;;;;;;10.10;4.30;;;;;;;19.24;93.71;101373.84;5034213;28;20029;-77
2023/08/14 07:38:02;;;;;;;10.55;4.50;;;;;;;19.31;93.21;101369.56;5031643;28;20059;-77
2023/08/14 07:40:27;;;;;;;10.35;4.50;;;;;;;19.58;93.34;101375.72;5032339;28;20034;-78
2023/08/14 07:42:53;;;;;;;10.00;4.32;;;;;;;19.81;91.68;101379.50;5032341;28;20028;-78
2023/08/14 07:45:18;;;;;;;9.70;4.38;;;;;;;20.17;90.66;101371.28;5031574;28;20104;-78
2023/08/14 07:47:44;;;;;;;11.15;3.83;;;;;;;20.47;88.30;101368.06;5032038;28;20056;-77
2023/08/14 07:50:10;;;;;;;8.05;3.88;;;;;;;20.99;84.71;101359.69;5032179;28;20029;-78
2023/08/14 07:52:36;;;;;;;8.43;3.88;;;;;;;21.26;81.85;101370.06;5025151;28;20021;-78
2023/08/14 07:55:02;;;;;;;11.82;4.15;;;;;;;21.30;78.91;101356.34;5044835;28;20571;-78
2023/08/14 07:57:27;;;;;;;7.57;3.45;;;;;;;21.38;78.70;101361.69;5051872;28;20245;-78
2023/08/14 07:59:54;;;;;;;7.93;3.10;;;;;;;21.48;79.58;101362.31;5050098;28;20028;-77
2023/08/14 08:02:20;;;;;;;7.68;3.22;;;;;;;21.71;78.42;101365.94;5052570;28;20213;-77
2023/08/14 08:04:45;;;;;;;7.22;2.80;;;;;;;22.02;75.49;101368.63;5052711;28;20384;-77
2023/08/14 08:07:11;;;;;;;6.45;2.70;;;;;;;22.25;74.06;101366.00;5034692;28;20025;-77
2023/08/14 08:09:36;;;;;;;6.18;2.90;;;;;;;22.31;73.91;101353.75;5033089;28;20104;-77
2023/08/14 08:12:02;;;;;;;7.65;2.47;;;;;;;22.78;72.84;101356.22;5031585;28;20439;-77
2023/08/14 08:14:27;;;;;;;4.43;1.90;;;;;;;23.02;73.92;101352.53;5032506;28;20029;-77
2023/08/14 08:16:53;;;;;;;6.10;2.30;;;;;;;23.36;69.66;101349.34;5032441;28;20477;-77
2023/08/14 08:19:18;;;;;;;4.88;2.35;;;;;;;23.60;68.75;101345.56;5031828;28;20132;-77
2023/08/14 08:21:44;;;;;;;6.32;2.40;;;;;;;23.69;66.10;101345.28;5031051;28;20024;-77
2023/08/14 08:24:09;;;;;;;6.97;2.40;;;;;;;23.89;66.05;101342.00;5023210;28;20068;-77
2023/08/14 08:26:36;;;;;;;11.35;2.70;;;;;;;24.00;63.66;101341.50;5012111;28;20080;-78
2023/08/14 08:29:02;;;;;;;5.78;2.13;;;;;;;24.10;63.96;101336.69;5036319;28;20299;-78
2023/08/14 08:31:27;;;;;;;5.20;1.90;;;;;;;24.34;63.60;101339.03;5051280;28;20028;-77
2023/08/14 08:33:53;;;;;;;6.53;2.45;;;;;;;24.50;61.70;101326.38;5050838;28;20031;-77
2023/08/14 08:36:18;;;;;;;4.72;1.88;;;;;;;24.78;61.57;101335.28;5051288;28;20112;-78
2023/08/14 08:38:44;;;;;;;3.58;1.52;;;;;;;24.85;60.58;101322.72;5051311;28;20059;-77
2023/08/14 08:41:12;;;;;;;5.00;1.88;;;;;;;24.98;59.30;101316.63;5030499;28;20638;-77
2023/08/14 08:43:39;;;;;;;5.55;1.70;;;;;;;25.24;58.98;101324.06;5011612;28;20096;-77
2023/08/14 08:46:12;;;;;;;11.43;2.17;;;;;;;25.12;57.27;101331.00;5011460;28;20057;-78
2023/08/14 08:48:41;;;;;;;5.15;1.98;;;;;;;25.17;57.44;101328.56;5026406;28;20034;-77
2023/08/14 08:51:11;;;;;;;5.63;2.00;;;;;;;25.16;57.80;101327.72;5011709;28;20033;-77
2023/08/14 08:53:37;;;;;;;3.97;1.50;;;;;;;25.49;55.61;101317.16;5016410;28;20036;-77
2023/08/14 08:56:03;;;;;;;5.15;1.85;;;;;;;25.52;55.97;101314.06;5038183;28;20044;-77
2023/08/14 08:58:29;;;;;;;5.68;1.95;;;;;;;25.77;55.68;101327.06;5025660;28;20104;-77
2023/08/14 09:00:54;;;;;;;6.30;2.00;;;;;;;25.85;54.51;101318.78;5030742;28;20112;-77
2023/08/14 09:03:21;;;;;;;6.38;1.63;;;;;;;26.05;52.39;101322.38;5029934;28;20079;-77
2023/08/14 09:05:46;;;;;;;5.22;1.95;;;;;;;26.17;53.13;101317.22;5030711;28;20018;-77
2023/08/14 09:08:12;;;;;;;5.18;1.83;;;;;;;26.35;54.08;101316.66;5031112;28;20025;-77
2023/08/14 09:10:40;;;;;;;8.23;2.10;;;;;;;26.28;52.34;101326.56;5029770;28;20047;-77
2023/08/14 09:13:06;;;;;;;5.72;2.60;;;;;;;26.26;51.17;101320.56;5031338;28;20032;-77
2023/08/14 09:15:31;;;;;;;6.95;1.90;;;;;;;26.48;52.69;101314.81;5021953;28;20433;-77
2023/08/14 09:17:57;;;;;;;5.22;1.60;;;;;;;26.62;52.41;101314.81;5031380;28;20474;-76
2023/08/14 09:20:22;;;;;;;5.00;1.70;;;;;;;26.73;49.67;101309.59;5031294;28;20021;-76
2023/08/14 09:22:48;;;;;;;6.15;2.05;;;;;;;26.82;49.28;101311.09;5030707;28;20096;-77
2023/08/14 09:25:15;;;;;;;5.13;2.10;;;;;;;26.89;48.39;101316.47;5031107;28;20933;-77
2023/08/14 09:27:42;;;;;;;4.78;1.95;;;;;;;27.17;47.87;101316.22;5032461;28;20028;-77
2023/08/14 09:30:13;;;;;;;5.45;1.60;;;;;;;27.14;48.92;101319.34;5049013;28;20477;-76
2023/08/14 09:32:38;;;;;;;3.38;1.67;;;;;;;27.20;46.54;101326.63;5045400;28;25873;-76
2023/08/14 09:35:04;;;;;;;5.63;1.70;;;;;;;27.05;47.54;101323.31;5027654;28;20021;-77
2023/08/14 09:37:30;;;;;;;6.60;1.80;;;;;;;26.89;48.43;101334.53;5030234;28;20093;-76
2023/08/14 09:40:15;;;;;;;4.32;1.63;;;;;;;27.35;50.97;101334.50;5030949;28;20108;-77
2023/08/14 09:42:48;;;;;;;5.78;2.00;;;;;;;27.43;48.14;101331.56;5030377;28;20485;-77
2023/08/14 09:45:16;;;;;;;3.58;1.48;;;;;;;27.27;48.30;101330.16;5029176;28;20030;-77
2023/08/14 09:47:44;;;;;;;4.50;1.92;;;;;;;27.21;47.70;101330.16;5029811;28;20271;-76
2023/08/14 09:50:10;;;;;;;6.03;1.80;;;;;;;27.09;48.18;101330.81;5025666;28;20037;-76
2023/08/14 09:52:36;;;;;;;6.22;1.67;;;;;;;27.37;48.34;101321.59;5007719;28;20029;-76
2023/08/14 09:55:02;;;;;;;4.85;1.75;;;;;;;27.57;48.45;101324.22;5038268;28;20028;-76
2023/08/14 09:57:27;;;;;;;3.70;1.48;;;;;;;27.58;45.14;101309.66;5049574;28;20318;-77
2023/08/14 09:59:55;;;;;;;4.70;1.98;;;;;;;27.34;45.21;101306.66;5049474;28;20385;-76
2023/08/14 10:02:23;;;;;;;5.10;1.60;;;;;;;27.43;45.19;101310.75;5048247;28;20446;-77
2023/08/14 10:04:49;;;;;;;4.55;2.00;;;;;;;27.04;45.60;101305.47;5049056;28;20029;-77
2023/08/14 10:07:16;;;;;;;5.70;1.80;;;;;;;26.98;48.45;101290.94;5037886;28;20453;-77
2023/08/14 10:09:49;;;;;;;4.60;1.75;;;;;;;27.24;47.71;101300.84;5027326;28;20403;-76
2023/08/14 10:12:16;;;;;;;5.28;1.90;;;;;;;27.42;47.90;101301.00;5028623;28;20036;-76
2023/08/14 10:14:47;;;;;;;4.05;1.67;;;;;;;27.58;43.30;101285.31;5029252;28;20024;-76
2023/08/14 10:17:21;;;;;;;9.05;1.75;;;;;;;27.71;45.93;101285.31;5029795;28;20079;-76
2023/08/14 10:19:51;;;;;;;4.70;1.83;;;;;;;27.77;43.75;101274.47;5029530;28;20021;-77
2023/08/14 10:22:19;;;;;;;4.15;2.00;;;;;;;27.62;42.74;101271.22;5028659;28;20060;-76
2023/08/14 10:24:45;;;;;;;5.28;1.83;;;;;;;27.39;44.62;101255.47;5023228;28;20025;-76
2023/08/14 10:27:11;;;;;;;4.75;1.77;;;;;;;27.44;44.84;101258.38;5028269;28;20359;-76
2023/08/14 10:29:37;;;;;;;7.20;1.90;;;;;;;27.39;44.65;101254.66;5046265;28;20079;-76
2023/08/14 10:32:05;;;;;;;5.75;1.88;;;;;;;27.51;45.02;101246.69;5049983;28;20033;-76
2023/08/14 10:34:32;;;;;;;6.40;1.80;;;;;;;27.45;44.62;101248.38;5049294;28;20048;-76
2023/08/14 10:36:57;;;;;;;3.97;1.50;;;;;;;27.48;45.22;101242.53;5048564;28;20041;-77
2023/08/14 10:39:34;;;;;;;4.15;1.80;;;;;;;27.57;47.01;101249.34;5049753;28;20032;-76
2023/08/14 10:42:00;;;;;;;3.60;1.80;;;;;;;27.68;45.17;101242.50;5031280;28;20108;-77
2023/08/14 10:44:33;;;;;;;3.65;1.42;;;;;;;27.58;46.68;101237.50;5029949;28;20029;-77
2023/08/14 10:47:12;;;;;;;3.97;1.60;;;;;;;27.85;45.68;101248.22;5026973;28;20128;-76
2023/08/14 10:49:50;;;;;;;4.53;1.70;;;;;;;27.55;43.71;101240.63;5028096;28;20477;-77
2023/08/14 10:52:18;;;;;;;5.40;1.75;;;;;;;27.44;44.51;101247.56;5027700;28;20021;-76
2023/08/14 10:54:49;;;;;;;3.95;1.75;;;;;;;27.80;43.93;101250.72;5039890;28;20017;-76
2023/08/14 10:57:14;;;;;;;4.90;1.98;;;;;;;27.57;44.04;101248.53;5048650;28;20341;-76
2023/08/14 10:59:42;;;;;;;4.78;1.70;;;;;;;27.80;43.61;101250.72;5025847;28;20053;-75
2023/08/14 11:02:11;;;;;;;5.88;1.88;;;;;;;27.76;42.73;101250.34;5028541;28;20061;-77
2023/08/14 11:04:58;;;;;;;5.35;1.77;;;;;;;27.86;45.25;101249.88;5031066;28;20053;-76
2023/08/14 11:07:29;;;;;;;4.60;1.60;;;;;;;27.78;42.95;101257.19;5032948;28;20531;-76
2023/08/14 11:09:57;;;;;;;5.35;1.90;;;;;;;27.94;43.43;101258.53;5032366;28;20043;-76